Time;durP1;ratioP1;P1;durP2;ratioP2;P2;SDS_P1;SDS_P2;PMS_P1;PMS_P2;Temp;Humidity;BMP_temperature;BMP_pressure;BME280_temperature;BME280_humidity;BME280_pressure;Samples;Min_cycle;Max_cycle;Signal;HPM_P1;HPM_P2
2022/11/07 00:00:42;;;;;;;73.50;33.30;;;;;;;3.35;93.00;100177.19;102808;1285;25389;-59
2022/11/07 00:03:13;;;;;;;75.40;34.30;;;;;;;3.33;93.05;100181.67;103239;1279;24428;-59
2022/11/07 00:05:45;;;;;;;78.00;33.60;;;;;;;3.32;93.14;100189.58;103286;1289;24464;-58
2022/11/07 00:08:16;;;;;;;69.00;34.50;;;;;;;3.31;93.21;100190.94;103206;1282;24453;-59
2022/11/07 00:10:47;;;;;;;73.90;31.70;;;;;;;3.30;93.31;100199.09;103114;1281;24418;-59
2022/11/07 00:13:19;;;;;;;80.10;33.40;;;;;;;3.27;93.38;100205.22;103139;1281;24437;-58
2022/11/07 00:15:50;;;;;;;78.40;35.50;;;;;;;3.26;93.37;100213.29;103210;1297;24463;-60
2022/11/07 00:18:22;;;;;;;75.90;35.10;;;;;;;3.26;93.44;100212.98;103203;1281;24389;-56
2022/11/07 00:20:54;;;;;;;79.30;37.70;;;;;;;3.25;93.55;100209.23;103106;1304;25380;-56
2022/11/07 00:23:27;;;;;;;82.90;35.20;;;;;;;3.25;93.61;100196.67;103433;1292;22499;-56
2022/11/07 00:26:03;;;;;;;78.20;34.90;;;;;;;3.27;93.55;100187.87;103166;1303;25402;-58
2022/11/07 00:28:36;;;;;;;75.30;31.90;;;;;;;3.29;93.41;100184.59;103220;1277;25334;-58
2022/11/07 00:31:09;;;;;;;80.00;37.20;;;;;;;3.30;93.33;100181.66;103223;1294;24373;-58
2022/11/07 00:33:41;;;;;;;79.20;34.30;;;;;;;3.31;93.30;100185.11;103155;1281;24408;-57
2022/11/07 00:36:19;;;;;;;78.40;37.00;;;;;;;3.31;93.41;100190.94;103163;1304;22931;-58
2022/11/07 00:38:51;;;;;;;79.80;37.80;;;;;;;3.32;93.37;100193.44;103129;1280;23077;-58
2022/11/07 00:41:22;;;;;;;76.60;36.10;;;;;;;3.29;93.36;100194.14;103181;1302;24338;-58
2022/11/07 00:43:54;;;;;;;72.40;35.40;;;;;;;3.28;93.39;100196.30;103135;1281;25356;-58
2022/11/07 00:46:26;;;;;;;70.20;33.60;;;;;;;3.27;93.41;100198.27;103129;1304;25587;-58
2022/11/07 00:49:00;;;;;;;74.30;32.50;;;;;;;3.24;93.47;100195.60;103111;1281;22472;-59
2022/11/07 00:51:31;;;;;;;76.50;34.70;;;;;;;3.23;93.66;100193.49;103132;1304;22461;-57
2022/11/07 00:54:05;;;;;;;79.50;32.90;;;;;;;3.24;93.68;100188.83;103220;1303;22479;-57
2022/11/07 00:56:36;;;;;;;72.40;32.10;;;;;;;3.23;93.70;100185.36;103154;1281;22473;-59
2022/11/07 00:59:08;;;;;;;70.50;32.40;;;;;;;3.23;93.70;100185.45;103113;1305;22463;-58
2022/11/07 01:01:40;;;;;;;71.20;33.10;;;;;;;3.23;93.74;100186.31;103072;1280;23109;-56
2022/11/07 01:07:05;;;;;;;72.70;33.20;;;;;;;3.21;93.69;100176.52;103063;1297;23239;-59
2022/11/07 01:09:37;;;;;;;72.60;32.10;;;;;;;3.20;93.82;100172.12;103135;1282;22547;-58
2022/11/07 01:12:09;;;;;;;72.30;32.10;;;;;;;3.23;93.92;100168.90;103085;1304;22584;-56
2022/11/07 01:14:41;;;;;;;77.30;32.90;;;;;;;3.25;93.95;100163.10;103120;1304;25303;-59
2022/11/07 01:17:12;;;;;;;70.50;30.30;;;;;;;3.26;93.93;100161.73;103087;1303;25256;-59
2022/11/07 01:19:43;;;;;;;64.70;29.70;;;;;;;3.27;93.90;100161.48;103172;1281;22498;-59
2022/11/07 01:22:15;;;;;;;67.70;30.10;;;;;;;3.29;93.94;100162.05;103206;1304;25365;-58
2022/11/07 01:24:46;;;;;;;68.90;28.70;;;;;;;3.28;93.87;100158.91;103191;1304;22481;-56
2022/11/07 01:27:18;;;;;;;75.90;31.80;;;;;;;3.28;93.86;100158.98;103186;1304;22462;-57
2022/11/07 01:29:49;;;;;;;57.60;26.80;;;;;;;3.28;93.76;100150.98;103285;1303;25339;-58
2022/11/07 01:32:22;;;;;;;63.20;29.70;;;;;;;3.26;93.82;100143.91;103154;1281;25223;-58
2022/11/07 01:34:54;;;;;;;63.00;31.00;;;;;;;3.26;93.75;100132.18;103217;1281;22474;-60
2022/11/07 01:37:25;;;;;;;68.20;29.20;;;;;;;3.27;93.74;100128.67;103128;1304;22475;-59
2022/11/07 01:39:57;;;;;;;68.70;29.60;;;;;;;3.29;93.77;100124.13;103149;1291;24410;-58
2022/11/07 01:42:29;;;;;;;65.90;30.30;;;;;;;3.28;93.93;100122.89;103178;1304;22469;-60
2022/11/07 01:45:01;;;;;;;58.90;28.20;;;;;;;3.26;94.03;100118.38;103240;1281;22466;-58
2022/11/07 01:47:37;;;;;;;64.70;29.80;;;;;;;3.26;94.03;100115.88;103261;1304;23800;-56
2022/11/07 01:50:09;;;;;;;69.90;33.70;;;;;;;3.25;93.97;100109.27;103171;1305;25383;-58
2022/11/07 01:52:44;;;;;;;62.70;28.90;;;;;;;3.24;94.05;100110.15;103116;1305;22474;-55
2022/11/07 01:55:21;;;;;;;64.90;28.80;;;;;;;3.24;94.18;100102.02;103249;1304;22445;-59
2022/11/07 01:57:57;;;;;;;74.70;31.00;;;;;;;3.23;94.19;100097.09;103166;1281;22474;-58
2022/11/07 02:00:30;;;;;;;68.70;29.90;;;;;;;3.23;94.23;100094.64;103177;1273;22461;-60
2022/11/07 02:03:06;;;;;;;67.30;30.20;;;;;;;3.22;94.24;100083.41;103238;1304;26508;-58
2022/11/07 02:05:43;;;;;;;61.60;27.90;;;;;;;3.22;94.42;100075.52;103142;1303;22465;-58
2022/11/07 02:08:16;;;;;;;64.90;29.50;;;;;;;3.24;94.73;100063.81;103050;1282;24348;-59
2022/11/07 02:10:49;;;;;;;69.50;30.90;;;;;;;3.25;94.76;100060.61;103366;1302;25468;-59
2022/11/07 02:13:25;;;;;;;62.00;27.90;;;;;;;3.26;94.60;100059.81;103196;1291;26205;-58
2022/11/07 02:15:58;;;;;;;61.30;27.30;;;;;;;3.25;94.52;100059.30;103219;1281;22469;-58
2022/11/07 02:18:31;;;;;;;68.50;30.00;;;;;;;3.22;94.56;100064.58;103273;1282;22476;-55
2022/11/07 02:21:12;;;;;;;61.50;27.30;;;;;;;3.20;94.64;100072.44;103381;1280;22463;-55
2022/11/07 02:23:50;;;;;;;63.60;27.40;;;;;;;3.19;94.80;100082.06;103120;1304;25404;-56
2022/11/07 02:26:22;;;;;;;62.10;26.90;;;;;;;3.19;94.86;100083.50;103097;1272;24290;-56
2022/11/07 02:28:57;;;;;;;62.90;26.80;;;;;;;3.18;94.83;100081.77;103067;1304;22459;-58
2022/11/07 02:31:28;;;;;;;59.90;26.10;;;;;;;3.20;94.90;100066.30;103009;1281;24344;-57
2022/11/07 02:34:00;;;;;;;60.10;27.30;;;;;;;3.21;94.98;100057.02;103104;1304;22475;-58
2022/11/07 02:36:31;;;;;;;53.00;23.90;;;;;;;3.23;94.92;100042.16;103077;1272;22610;-59
2022/11/07 02:39:03;;;;;;;62.70;26.40;;;;;;;3.24;94.95;100039.14;103106;1302;22472;-58
2022/11/07 02:41:35;;;;;;;64.60;27.50;;;;;;;3.26;95.00;100044.54;103356;1305;23039;-59
2022/11/07 02:44:11;;;;;;;56.50;24.50;;;;;;;3.26;95.31;100057.52;103059;1281;24348;-59
2022/11/07 02:46:42;;;;;;;57.60;25.00;;;;;;;3.29;95.31;100056.02;103135;1305;22478;-57
2022/11/07 02:49:31;;;;;;;58.60;25.00;;;;;;;3.33;95.32;100049.17;102971;1306;24266;-58
2022/11/07 02:52:02;;;;;;;55.00;26.30;;;;;;;3.35;95.33;100046.99;103103;1297;24332;-55
2022/11/07 02:54:33;;;;;;;59.30;24.60;;;;;;;3.36;95.21;100053.73;103082;1281;22540;-57
2022/11/07 02:57:05;;;;;;;54.20;26.00;;;;;;;3.40;95.23;100060.88;103161;1305;25333;-57
2022/11/07 02:59:37;;;;;;;55.30;24.50;;;;;;;3.41;95.17;100058.02;103172;1304;22469;-58
2022/11/07 03:02:08;;;;;;;60.60;26.20;;;;;;;3.43;95.06;100059.98;103127;1274;25266;-59
2022/11/07 03:04:39;;;;;;;53.50;24.10;;;;;;;3.43;95.15;100061.42;103097;1281;25299;-56
2022/11/07 03:07:11;;;;;;;58.10;25.60;;;;;;;3.43;95.07;100056.77;103100;1281;22465;-58
2022/11/07 03:09:44;;;;;;;51.30;20.90;;;;;;;3.44;95.16;100058.00;103099;1274;22510;-58
2022/11/07 03:12:15;;;;;;;53.20;23.90;;;;;;;3.47;95.25;100059.36;103222;1288;22478;-57
2022/11/07 03:14:48;;;;;;;55.50;23.10;;;;;;;3.48;95.36;100063.48;103240;1278;22465;-58
2022/11/07 03:17:19;;;;;;;50.10;21.60;;;;;;;3.50;95.25;100054.61;103210;1279;22487;-57
2022/11/07 03:19:50;;;;;;;49.40;22.30;;;;;;;3.52;95.45;100057.39;103181;1303;24426;-59
2022/11/07 03:22:22;;;;;;;51.70;21.40;;;;;;;3.54;95.48;100061.60;103108;1282;24457;-58
2022/11/07 03:24:53;;;;;;;52.70;23.80;;;;;;;3.55;95.72;100065.36;103129;1304;22497;-57
2022/11/07 03:27:26;;;;;;;55.00;23.10;;;;;;;3.58;95.93;100069.85;103208;1282;25394;-58
2022/11/07 03:29:57;;;;;;;47.20;22.00;;;;;;;3.61;96.14;100070.64;103198;1289;22477;-57
2022/11/07 03:32:29;;;;;;;49.60;23.00;;;;;;;3.64;96.20;100075.20;103330;1281;24295;-58
2022/11/07 03:35:01;;;;;;;52.00;22.30;;;;;;;3.67;96.29;100087.66;103007;1304;25392;-60
2022/11/07 03:37:33;;;;;;;45.20;20.60;;;;;;;3.70;96.34;100093.57;103082;1304;22504;-58
2022/11/07 03:40:04;;;;;;;53.90;21.80;;;;;;;3.72;96.27;100095.66;103162;1288;24396;-58
2022/11/07 03:42:41;;;;;;;53.50;22.30;;;;;;;3.73;96.14;100098.21;103060;1302;24339;-58
2022/11/07 03:45:14;;;;;;;47.60;21.60;;;;;;;3.74;96.17;100106.89;103155;1270;22464;-58
2022/11/07 03:47:47;;;;;;;46.30;20.10;;;;;;;3.75;96.22;100106.05;103169;1306;22485;-58
2022/11/07 03:50:21;;;;;;;48.30;20.50;;;;;;;3.75;96.15;100107.14;103082;1305;22951;-58
2022/11/07 03:52:52;;;;;;;48.70;21.00;;;;;;;3.76;96.03;100111.62;103094;1286;24350;-59
2022/11/07 03:55:23;;;;;;;47.40;20.70;;;;;;;3.77;95.99;100114.42;103176;1281;25277;-58
2022/11/07 03:57:54;;;;;;;46.80;20.30;;;;;;;3.78;95.89;100117.65;103061;1291;22839;-58
2022/11/07 04:00:26;;;;;;;42.60;17.80;;;;;;;3.78;95.91;100114.10;103196;1280;25703;-56
2022/11/07 04:02:57;;;;;;;46.70;18.50;;;;;;;3.78;95.88;100111.56;103195;1305;22461;-56
2022/11/07 04:05:28;;;;;;;53.50;20.90;;;;;;;3.79;95.82;100115.17;103446;1281;22481;-58
2022/11/07 04:08:00;;;;;;;48.00;20.70;;;;;;;3.81;95.78;100113.69;103117;1281;24277;-57
2022/11/07 04:10:31;;;;;;;47.70;21.60;;;;;;;3.84;95.83;100120.87;103098;1304;22458;-58
2022/11/07 04:18:40;;;;;;;48.20;21.20;;;;;;;3.87;95.67;100111.94;103056;1306;24514;-59
2022/11/07 04:21:12;;;;;;;46.80;21.00;;;;;;;3.88;95.60;100099.30;103252;1297;24356;-58
2022/11/07 04:23:44;;;;;;;50.90;21.80;;;;;;;3.89;95.66;100090.98;103209;1280;25730;-58
2022/11/07 04:29:10;;;;;;;45.90;19.90;;;;;;;3.90;95.79;100102.79;102596;1294;24153;-61
2022/11/07 04:31:41;;;;;;;51.30;22.10;;;;;;;3.90;95.86;100106.73;102698;1287;22526;-61
2022/11/07 04:34:13;;;;;;;50.80;21.30;;;;;;;3.91;95.86;100106.57;102661;1287;22818;-59
2022/11/07 04:36:45;;;;;;;46.30;19.90;;;;;;;3.91;95.75;100103.88;102787;1287;22473;-60
2022/11/07 04:39:16;;;;;;;50.50;22.50;;;;;;;3.92;95.73;100096.43;102736;1285;22963;-60
2022/11/07 04:41:47;;;;;;;50.10;21.40;;;;;;;3.92;95.92;100095.09;102707;1285;22485;-62
2022/11/07 04:44:20;;;;;;;57.50;22.80;;;;;;;3.92;95.95;100099.73;102642;1286;22477;-59
2022/11/07 04:46:52;;;;;;;52.20;22.70;;;;;;;3.92;95.99;100098.33;102690;1287;22494;-60
2022/11/07 04:49:23;;;;;;;49.40;20.10;;;;;;;3.92;96.15;100089.00;102667;1286;22472;-60
2022/11/07 04:51:58;;;;;;;52.80;22.00;;;;;;;3.93;96.15;100084.17;102724;1311;22480;-61
2022/11/07 04:54:29;;;;;;;56.30;23.60;;;;;;;3.94;96.11;100078.76;102682;1286;22471;-60
2022/11/07 04:57:01;;;;;;;49.90;22.40;;;;;;;3.97;96.24;100076.80;102749;1314;25254;-61
2022/11/07 04:59:33;;;;;;;54.70;23.00;;;;;;;3.97;96.46;100087.05;102770;1288;22481;-61
2022/11/07 05:02:04;;;;;;;53.50;23.40;;;;;;;3.99;96.51;100082.82;102839;1287;25272;-61
2022/11/07 05:04:35;;;;;;;50.50;23.10;;;;;;;4.02;96.65;100087.15;102699;1288;25309;-63
2022/11/07 05:07:07;;;;;;;47.40;20.30;;;;;;;4.03;96.64;100082.20;102935;1297;22471;-61
2022/11/07 05:09:39;;;;;;;50.40;20.30;;;;;;;4.03;96.57;100080.73;103114;1305;22486;-61
2022/11/07 05:12:10;;;;;;;50.60;23.10;;;;;;;4.03;96.65;100090.27;103072;1282;22456;-61
2022/11/07 05:14:41;;;;;;;50.30;22.70;;;;;;;4.03;96.59;100084.59;103179;1291;22460;-61
2022/11/07 05:17:16;;;;;;;47.90;21.40;;;;;;;4.03;96.64;100083.40;103051;1304;22495;-61
2022/11/07 05:19:47;;;;;;;50.20;22.50;;;;;;;4.05;96.67;100082.17;103025;1304;22714;-60
2022/11/07 05:25:09;;;;;;;49.50;23.60;;;;;;;4.07;96.72;100081.02;105132;1297;25357;-60
2022/11/07 05:27:41;;;;;;;49.90;22.60;;;;;;;4.08;96.72;100074.41;103162;1303;25372;-62
2022/11/07 05:30:14;;;;;;;52.70;23.00;;;;;;;4.09;96.74;100064.44;103670;1283;23395;-60
2022/11/07 05:32:46;;;;;;;56.20;23.80;;;;;;;4.11;96.78;100064.64;103116;1297;23699;-61
2022/11/07 05:35:17;;;;;;;49.00;23.30;;;;;;;4.14;97.10;100084.44;103188;1303;22481;-60
2022/11/07 05:37:48;;;;;;;53.90;22.70;;;;;;;4.16;97.35;100102.61;103113;1302;24410;-60
2022/11/07 05:40:20;;;;;;;43.10;20.50;;;;;;;4.17;97.38;100099.04;103087;1303;22463;-61
2022/11/07 05:42:51;;;;;;;44.70;18.70;;;;;;;4.19;97.33;100111.77;103162;1303;22602;-61
2022/11/07 05:45:22;;;;;;;49.10;20.60;;;;;;;4.21;97.37;100116.05;103400;1280;25263;-61
2022/11/07 05:47:59;;;;;;;46.40;19.20;;;;;;;4.23;97.35;100113.92;103227;1304;22491;-60
2022/11/07 05:50:31;;;;;;;48.60;19.30;;;;;;;4.25;97.41;100118.45;103321;1281;22448;-61
2022/11/07 05:53:04;;;;;;;42.30;19.60;;;;;;;4.27;97.48;100122.02;103211;1281;24327;-60
2022/11/07 05:55:36;;;;;;;47.10;20.30;;;;;;;4.30;97.53;100119.40;103193;1303;24304;-61
2022/11/07 05:58:11;;;;;;;44.20;19.60;;;;;;;4.33;97.57;100117.11;103083;1287;22486;-61
2022/11/07 06:00:43;;;;;;;54.70;23.90;;;;;;;4.35;97.52;100123.43;103219;1281;22525;-61
2022/11/07 06:03:15;;;;;;;48.80;21.80;;;;;;;4.37;97.61;100133.55;103140;1303;22466;-61
2022/11/07 06:05:46;;;;;;;56.90;21.80;;;;;;;4.41;97.85;100130.93;103262;1304;22587;-61
2022/11/07 06:08:17;;;;;;;45.80;20.00;;;;;;;4.45;97.84;100132.46;103082;1303;24365;-62
2022/11/07 06:10:49;;;;;;;46.50;18.80;;;;;;;4.48;97.84;100138.55;103146;1281;24366;-62
2022/11/07 06:13:20;;;;;;;44.30;19.20;;;;;;;4.50;97.83;100138.41;103137;1280;22458;-62
2022/11/07 06:15:52;;;;;;;46.80;21.10;;;;;;;4.52;97.82;100145.20;103083;1281;22479;-60
2022/11/07 06:18:24;;;;;;;48.00;22.20;;;;;;;4.54;97.75;100147.61;103331;1284;23241;-61
2022/11/07 06:20:55;;;;;;;51.10;22.60;;;;;;;4.56;97.90;100159.77;103223;1304;25580;-62
2022/11/07 06:23:26;;;;;;;61.20;26.40;;;;;;;4.59;97.95;100165.36;103226;1281;22468;-61
2022/11/07 06:25:58;;;;;;;49.30;22.80;;;;;;;4.61;98.05;100171.47;103228;1280;22458;-62
2022/11/07 06:28:31;;;;;;;54.50;23.20;;;;;;;4.67;98.18;100174.70;103277;1281;22459;-59
2022/11/07 06:31:04;;;;;;;51.70;23.10;;;;;;;4.70;98.03;100176.58;103336;1303;22478;-61
2022/11/07 06:33:35;;;;;;;43.30;21.80;;;;;;;4.71;98.19;100178.20;103160;1281;24204;-61
2022/11/07 06:36:12;;;;;;;50.50;21.40;;;;;;;4.73;98.25;100177.67;103308;1303;24435;-61
2022/11/07 06:38:43;;;;;;;49.70;20.80;;;;;;;4.76;98.46;100186.90;103170;1306;22458;-63
2022/11/07 06:41:16;;;;;;;50.10;22.10;;;;;;;4.80;98.39;100184.10;103138;1302;23081;-62
2022/11/07 06:43:47;;;;;;;55.10;22.70;;;;;;;4.83;98.56;100188.66;103207;1304;22465;-61
2022/11/07 06:46:21;;;;;;;52.10;21.50;;;;;;;4.87;98.64;100192.59;103076;1298;22587;-62
2022/11/07 06:48:53;;;;;;;57.00;23.60;;;;;;;4.89;98.66;100199.47;103180;1283;25525;-61
2022/11/07 06:51:24;;;;;;;48.90;22.60;;;;;;;4.93;98.78;100199.11;103140;1309;25572;-61
2022/11/07 06:53:56;;;;;;;53.50;21.90;;;;;;;4.97;98.87;100202.32;103372;1294;22466;-61
2022/11/07 06:56:28;;;;;;;51.40;20.10;;;;;;;4.99;98.94;100209.77;103060;1287;25338;-61
2022/11/07 06:58:59;;;;;;;46.20;21.90;;;;;;;5.01;98.92;100211.04;103006;1294;24419;-62
2022/11/07 07:01:31;;;;;;;62.50;26.00;;;;;;;5.04;98.91;100217.05;103087;1281;24297;-61
2022/11/07 07:04:04;;;;;;;63.90;27.60;;;;;;;5.08;99.01;100219.70;103102;1288;24351;-61
2022/11/07 07:06:35;;;;;;;69.70;28.80;;;;;;;5.11;99.25;100217.68;103098;1282;22462;-63
2022/11/07 07:09:06;;;;;;;73.30;31.90;;;;;;;5.15;99.31;100221.44;103193;1303;22472;-60
2022/11/07 07:11:43;;;;;;;66.80;28.50;;;;;;;5.18;99.38;100219.53;103255;1306;22477;-62
2022/11/07 07:14:15;;;;;;;59.60;25.10;;;;;;;5.22;99.52;100225.79;103121;1281;22464;-62
2022/11/07 07:16:50;;;;;;;58.70;23.30;;;;;;;5.27;99.60;100230.00;103113;1303;22477;-62
2022/11/07 07:19:22;;;;;;;67.80;26.10;;;;;;;5.31;99.58;100230.05;105918;1298;25362;-62
2022/11/07 07:21:53;;;;;;;65.10;25.90;;;;;;;5.34;99.72;100239.59;103221;1288;22481;-62
2022/11/07 07:24:25;;;;;;;54.80;22.30;;;;;;;5.37;99.77;100237.11;103497;1286;24270;-63
2022/11/07 07:26:57;;;;;;;48.40;20.20;;;;;;;5.41;99.83;100243.79;103630;1305;22745;-63
2022/11/07 07:29:28;;;;;;;45.20;19.50;;;;;;;5.44;99.81;100243.27;103769;1309;22481;-62
2022/11/07 07:31:59;;;;;;;42.60;19.50;;;;;;;5.48;99.85;100247.98;103483;1282;22550;-62
2022/11/07 07:34:30;;;;;;;37.80;17.30;;;;;;;5.52;99.81;100254.02;103490;1304;22779;-62
2022/11/07 07:37:02;;;;;;;42.50;18.40;;;;;;;5.55;99.73;100255.84;103503;1310;24203;-63
2022/11/07 07:39:33;;;;;;;37.30;16.30;;;;;;;5.57;99.66;100255.36;103543;1281;23252;-63
2022/11/07 07:42:05;;;;;;;38.10;16.80;;;;;;;5.60;99.75;100253.29;103539;1304;22480;-61
2022/11/07 07:44:37;;;;;;;38.80;17.00;;;;;;;5.63;99.66;100254.06;103630;1304;22479;-62
2022/11/07 07:47:10;;;;;;;37.40;17.00;;;;;;;5.66;99.75;100261.09;103584;1280;22482;-62
2022/11/07 07:49:41;;;;;;;41.10;15.70;;;;;;;5.69;99.77;100261.95;103516;1307;22477;-62
2022/11/07 07:52:13;;;;;;;37.90;16.10;;;;;;;5.72;99.89;100270.45;103434;1287;23385;-61
2022/11/07 07:54:45;;;;;;;38.30;16.30;;;;;;;5.79;100.00;100268.52;103521;1279;26073;-60
2022/11/07 07:57:16;;;;;;;38.60;18.10;;;;;;;5.86;100.00;100269.26;103555;1309;24266;-63
2022/11/07 07:59:48;;;;;;;45.60;18.00;;;;;;;5.92;100.00;100271.65;103615;1309;22697;-63
2022/11/07 08:02:20;;;;;;;40.10;15.50;;;;;;;6.02;100.00;100274.97;103430;1286;22542;-63
2022/11/07 08:04:51;;;;;;;44.90;16.30;;;;;;;6.10;100.00;100275.40;103662;1284;22510;-63
2022/11/07 08:07:24;;;;;;;32.00;13.90;;;;;;;6.19;100.00;100277.78;103493;1308;22565;-62
2022/11/07 08:09:55;;;;;;;37.60;14.30;;;;;;;6.29;100.00;100282.98;103514;1290;22771;-63
2022/11/07 08:12:27;;;;;;;34.90;13.10;;;;;;;6.38;100.00;100284.39;103572;1288;24145;-63
2022/11/07 08:14:59;;;;;;;35.80;13.10;;;;;;;6.49;100.00;100285.92;103561;1304;22512;-63
2022/11/07 08:17:31;;;;;;;28.70;10.40;;;;;;;6.59;100.00;100288.33;103660;1295;22462;-63
2022/11/07 08:20:02;;;;;;;29.20;11.20;;;;;;;6.72;100.00;100293.60;103544;1302;25496;-62
2022/11/07 08:22:34;;;;;;;22.80;9.20;;;;;;;6.83;100.00;100291.36;103436;1308;25261;-63
2022/11/07 08:25:07;;;;;;;25.50;10.00;;;;;;;6.93;100.00;100295.59;103466;1282;25397;-62
2022/11/07 08:27:39;;;;;;;27.60;10.20;;;;;;;7.02;100.00;100300.96;103552;1290;22548;-65
2022/11/07 08:30:13;;;;;;;25.50;9.90;;;;;;;7.11;100.00;100301.02;103523;1286;24249;-63
2022/11/07 08:32:45;;;;;;;25.30;9.30;;;;;;;7.21;100.00;100303.16;103566;1310;23321;-63
2022/11/07 08:35:17;;;;;;;25.10;9.70;;;;;;;7.30;100.00;100304.79;104124;1288;22440;-63
2022/11/07 08:37:49;;;;;;;26.50;10.40;;;;;;;7.40;100.00;100306.41;104205;1289;22472;-63
2022/11/07 08:40:20;;;;;;;28.20;9.60;;;;;;;7.49;100.00;100302.70;103446;1291;22479;-63
2022/11/07 08:42:52;;;;;;;30.30;8.90;;;;;;;7.58;100.00;100304.66;103535;1305;22476;-65
2022/11/07 08:45:23;;;;;;;25.90;10.40;;;;;;;7.66;100.00;100309.81;103581;1305;24449;-64
2022/11/07 08:48:00;;;;;;;27.50;10.60;;;;;;;7.74;100.00;100309.67;103537;1306;24252;-61
2022/11/07 08:50:31;;;;;;;29.90;10.10;;;;;;;7.82;100.00;100313.45;103734;1306;24297;-63
2022/11/07 08:53:03;;;;;;;26.60;9.20;;;;;;;7.91;100.00;100320.92;103487;1287;24326;-62
2022/11/07 08:55:34;;;;;;;21.60;8.90;;;;;;;8.00;99.95;100323.11;103537;1303;24256;-62
2022/11/07 08:58:07;;;;;;;26.10;9.40;;;;;;;8.08;99.95;100323.73;103447;1288;25268;-63
2022/11/07 09:00:39;;;;;;;21.60;8.20;;;;;;;8.17;99.67;100315.56;103500;1304;22488;-64
2022/11/07 09:03:12;;;;;;;21.80;6.20;;;;;;;8.29;99.55;100322.02;103586;1303;22860;-64
2022/11/07 09:05:44;;;;;;;22.30;7.20;;;;;;;8.40;99.43;100324.70;103600;1304;22479;-65
2022/11/07 09:08:15;;;;;;;20.80;6.40;;;;;;;8.52;99.17;100325.70;103470;1294;27445;-63
2022/11/07 09:10:46;;;;;;;13.30;5.70;;;;;;;8.64;98.77;100331.23;103635;1306;25566;-62
2022/11/07 09:13:19;;;;;;;16.50;4.60;;;;;;;8.74;97.96;100330.72;103607;1286;25367;-63
2022/11/07 09:15:56;;;;;;;17.70;5.60;;;;;;;8.82;97.62;100332.17;103550;1281;22473;-63
2022/11/07 09:18:28;;;;;;;15.90;4.30;;;;;;;8.89;97.18;100328.86;103522;1281;22478;-63
2022/11/07 09:21:00;;;;;;;19.00;4.90;;;;;;;8.96;97.10;100333.39;103652;1304;25227;-63
2022/11/07 09:23:31;;;;;;;15.00;3.80;;;;;;;9.03;96.61;100333.27;103699;1294;25228;-64
2022/11/07 09:26:03;;;;;;;13.20;3.90;;;;;;;9.09;96.26;100326.99;103609;1279;25374;-63
2022/11/07 09:28:35;;;;;;;15.40;2.90;;;;;;;9.17;96.11;100330.23;103602;1280;22451;-63
2022/11/07 09:31:06;;;;;;;14.90;3.40;;;;;;;9.24;95.87;100331.18;103526;1280;25256;-63
2022/11/07 09:33:38;;;;;;;11.00;2.60;;;;;;;9.30;95.64;100331.95;103689;1281;22469;-63
2022/11/07 09:36:11;;;;;;;11.30;2.70;;;;;;;9.34;95.30;100331.24;103608;1303;22468;-66
2022/11/07 09:38:44;;;;;;;14.40;3.30;;;;;;;9.41;95.41;100334.14;103621;1304;23974;-63
2022/11/07 09:41:26;;;;;;;13.30;3.70;;;;;;;9.47;95.51;100334.08;103565;1282;24243;-63
2022/11/07 09:44:10;;;;;;;13.20;4.10;;;;;;;9.53;95.43;100340.60;103579;1304;24317;-64
2022/11/07 09:46:55;;;;;;;16.10;4.70;;;;;;;9.60;94.80;100340.55;103508;1305;24187;-62
2022/11/07 09:49:31;;;;;;;13.70;4.30;;;;;;;9.66;94.85;100340.04;103576;1274;24283;-62
2022/11/07 09:52:13;;;;;;;22.20;5.30;;;;;;;9.71;95.04;100343.20;103543;1303;22477;-63
2022/11/07 09:54:50;;;;;;;16.60;4.70;;;;;;;9.76;94.38;100345.04;103428;1304;24293;-63
2022/11/07 09:57:22;;;;;;;14.50;4.90;;;;;;;9.79;94.01;100346.64;103608;1304;22516;-64
2022/11/07 09:59:55;;;;;;;15.40;6.20;;;;;;;9.83;93.27;100345.17;103488;1303;22487;-62
2022/11/07 10:02:31;;;;;;;16.10;4.80;;;;;;;9.87;93.54;100344.90;103859;1304;23542;-63
2022/11/07 10:05:04;;;;;;;13.90;4.50;;;;;;;9.92;93.46;100340.52;103506;1304;24401;-63
2022/11/07 10:07:46;;;;;;;12.50;3.90;;;;;;;9.98;93.34;100338.92;103689;1303;22478;-63
2022/11/07 10:10:23;;;;;;;13.20;4.00;;;;;;;10.04;93.06;100339.30;103486;1291;22747;-62
2022/11/07 10:13:34;;;;;;;16.10;4.90;;;;;;;10.10;93.27;100340.17;103535;1302;24331;-65
2022/11/07 10:16:12;;;;;;;14.00;4.00;;;;;;;10.18;92.99;100333.42;103526;1281;24386;-62
2022/11/07 10:18:57;;;;;;;15.40;5.20;;;;;;;10.26;93.23;100336.84;103512;1282;22528;-64
2022/11/07 10:21:38;;;;;;;12.10;3.20;;;;;;;10.36;92.93;100333.73;103406;1280;22474;-63
2022/11/07 10:24:28;;;;;;;18.80;4.10;;;;;;;10.45;92.46;100331.16;103453;1304;25942;-63
2022/11/07 10:27:00;;;;;;;15.10;4.10;;;;;;;10.54;92.47;100331.85;103674;1304;22470;-65
2022/11/07 10:29:41;;;;;;;18.70;5.40;;;;;;;10.61;92.25;100330.11;103543;1304;22617;-62
2022/11/07 10:32:20;;;;;;;13.40;3.60;;;;;;;10.69;92.53;100329.09;103202;1281;484596;-62
2022/11/07 10:34:57;;;;;;;12.80;3.50;;;;;;;10.75;91.68;100331.96;103423;1287;22484;-65
2022/11/07 10:37:28;;;;;;;12.20;3.50;;;;;;;10.81;91.48;100336.49;103541;1282;25789;-63
2022/11/07 10:40:00;;;;;;;11.70;3.30;;;;;;;10.86;91.43;100337.52;103536;1305;25428;-63
2022/11/07 10:42:34;;;;;;;12.40;2.80;;;;;;;10.92;90.96;100329.80;104656;1282;22556;-64
2022/11/07 10:45:11;;;;;;;10.90;2.50;;;;;;;10.95;90.72;100337.84;103763;1304;22467;-64
2022/11/07 10:47:55;;;;;;;11.90;3.10;;;;;;;10.99;90.58;100334.54;103496;1304;24312;-63
2022/11/07 10:50:28;;;;;;;10.70;2.40;;;;;;;11.03;90.59;100333.45;103797;1297;23071;-63
2022/11/07 10:53:02;;;;;;;10.70;2.80;;;;;;;11.05;90.24;100333.86;103603;1274;25637;-65
2022/11/07 10:55:44;;;;;;;11.80;2.90;;;;;;;11.07;89.53;100328.61;103462;1277;22469;-63
2022/11/07 10:58:21;;;;;;;10.40;2.50;;;;;;;11.06;89.34;100326.16;103577;1299;22479;-63
2022/11/07 11:01:06;;;;;;;9.70;2.90;;;;;;;11.06;89.14;100325.38;103467;1304;22478;-64
2022/11/07 11:03:43;;;;;;;8.40;2.40;;;;;;;11.06;89.30;100330.57;103524;1282;24336;-64
2022/11/07 11:06:29;;;;;;;9.10;2.50;;;;;;;11.06;89.09;100326.41;103607;1283;22825;-64
2022/11/07 11:09:16;;;;;;;9.90;2.10;;;;;;;11.08;88.77;100327.91;103600;1303;24295;-62
2022/11/07 11:11:52;;;;;;;6.40;1.50;;;;;;;11.10;88.24;100323.70;103450;1304;22464;-63
2022/11/07 11:14:25;;;;;;;8.00;1.60;;;;;;;11.14;87.97;100325.80;103567;1301;25623;-64
2022/11/07 11:16:57;;;;;;;6.90;1.40;;;;;;;11.18;87.67;100326.72;103503;1281;24269;-62
2022/11/07 11:19:37;;;;;;;7.30;1.20;;;;;;;11.22;87.53;100324.41;103427;1282;25685;-63
2022/11/07 11:22:15;;;;;;;5.40;1.00;;;;;;;11.27;87.39;100325.51;103397;1280;23211;-63
2022/11/07 11:24:58;;;;;;;7.30;1.00;;;;;;;11.31;87.34;100325.59;103493;1281;22731;-65
2022/11/07 11:27:33;;;;;;;3.70;0.90;;;;;;;11.36;87.10;100326.03;103478;1274;23025;-63
2022/11/07 11:30:09;;;;;;;6.80;1.00;;;;;;;11.42;86.53;100324.23;103769;1281;22540;-64
2022/11/07 11:32:47;;;;;;;5.50;0.80;;;;;;;11.47;86.84;100319.48;103525;1292;22744;-63
2022/11/07 11:35:34;;;;;;;3.50;0.90;;;;;;;11.51;86.61;100321.05;103616;1304;22494;-64
2022/11/07 11:38:13;;;;;;;4.00;0.80;;;;;;;11.56;86.39;100322.60;103472;1298;24372;-63
2022/11/07 11:40:50;;;;;;;6.10;1.00;;;;;;;11.61;86.30;100324.50;103496;1304;22458;-63
2022/11/07 11:43:25;;;;;;;4.60;0.70;;;;;;;11.66;85.90;100324.91;103465;1282;22893;-64
2022/11/07 11:46:09;;;;;;;6.00;0.80;;;;;;;11.70;85.59;100325.49;103462;1291;24271;-63
2022/11/07 11:48:45;;;;;;;5.90;0.90;;;;;;;11.75;85.34;100321.21;103454;1304;22478;-63
2022/11/07 11:51:22;;;;;;;6.70;0.80;;;;;;;11.79;85.41;100318.21;103486;1298;25334;-63